Pagina principale
METAR-TAF:

METAR-TAF

Aeroporti :

Brazza, Croazia

latitudine: 43-17-09N, longitudine: 016-40-47E, altezza: 541 m

METAR: mancante

Ora: 12:58 (10:58 UTC)

Previsione

Il bollettino è stato emesso 25 ore e 57 minuti fa, alle 09:01 UTC
Previsione valida dal 14 alle 10 UTC al 15 alle 06 UTC
Vento 2 kt da direzioni variabili
Visibilità 10 km o più
nessuna nube inferiore a 1500 m e nessun cumulonembo

TAF: LDSB 140901Z 1410/1506 VRB02KT CAVOK TX22/1412Z TN16/1504Z

Osservazioni e previsioni meteorologiche di più di 4000 aeroporti (messaggi METAR e TAF).

Le stazioni disponibili sono rappresentate dai dischi gialli e rossi sulla carta.

Puntare il mouse per vedere il nome della stazione.

Clicca sopra per visualizzare le osservazioni e previsioni meteorologiche.

Per cambiare la mappa : fare clic sui pulsanti verdi con una croce nera per ingrandire, il pulsante verde con un trattino per diminuire, o sulla freccia verde per le mappe adiacenti.


METAR-TAF: